createdAt,value
2018-04-13T00:00:58.034Z,0.00
2018-04-13T00:01:58.015Z,0.00
2018-04-13T00:02:58.007Z,0.00
2018-04-13T00:03:57.996Z,0.00
2018-04-13T00:04:57.980Z,0.00
2018-04-13T00:05:57.971Z,0.00
2018-04-13T00:06:57.950Z,0.00
2018-04-13T00:07:57.937Z,0.00
2018-04-13T00:08:57.932Z,0.00
2018-04-13T00:09:57.913Z,0.00
2018-04-13T00:10:57.904Z,0.00
2018-04-13T00:11:57.891Z,0.00
2018-04-13T00:12:57.878Z,0.00
2018-04-13T00:13:57.858Z,0.00
2018-04-13T00:14:57.852Z,0.00
2018-04-13T00:15:57.835Z,0.00
2018-04-13T00:16:57.822Z,0.00
2018-04-13T00:17:57.806Z,0.00
2018-04-13T00:18:57.794Z,0.00
2018-04-13T00:19:57.778Z,0.00
2018-04-13T00:20:57.774Z,0.00
2018-04-13T00:21:57.762Z,0.00
2018-04-13T00:22:57.747Z,0.00
2018-04-13T00:23:57.733Z,0.00
2018-04-13T00:24:57.721Z,0.00
2018-04-13T00:25:57.708Z,0.00
2018-04-13T00:26:57.688Z,0.00
2018-04-13T00:27:57.676Z,0.00
2018-04-13T00:28:57.675Z,0.00
2018-04-13T00:29:57.670Z,0.00
2018-04-13T00:30:57.644Z,0.00
2018-04-13T00:31:57.640Z,0.00
2018-04-13T00:32:57.614Z,0.00
2018-04-13T00:33:57.604Z,0.00
2018-04-13T00:34:57.589Z,0.00
2018-04-13T00:35:57.571Z,0.00
2018-04-13T00:36:57.568Z,0.00
2018-04-13T00:37:57.554Z,0.00
2018-04-13T00:38:57.538Z,0.00
2018-04-13T00:39:57.524Z,0.00
2018-04-13T00:40:57.513Z,0.00
2018-04-13T00:41:57.504Z,0.00
2018-04-13T00:42:57.482Z,0.00
2018-04-13T00:43:57.471Z,0.00
2018-04-13T00:44:57.457Z,0.00
2018-04-13T00:45:57.443Z,0.00
2018-04-13T00:46:57.428Z,0.00
2018-04-13T00:47:57.413Z,0.00
2018-04-13T00:48:57.415Z,0.00
2018-04-13T00:49:57.392Z,0.00
2018-04-13T00:50:57.380Z,0.00
2018-04-13T00:51:57.372Z,0.00
2018-04-13T00:52:57.352Z,0.00
2018-04-13T00:53:57.344Z,0.00
2018-04-13T00:54:57.326Z,0.00
2018-04-13T00:55:57.314Z,0.00
2018-04-13T00:56:57.303Z,0.00
2018-04-13T00:57:57.285Z,0.00
2018-04-13T00:58:57.278Z,0.00
2018-04-13T00:59:57.263Z,0.00
2018-04-13T01:00:57.256Z,0.00
2018-04-13T01:01:57.237Z,0.00
2018-04-13T01:02:57.221Z,0.00
2018-04-13T01:03:57.207Z,0.00
2018-04-13T01:04:57.200Z,0.00
2018-04-13T01:05:57.193Z,0.00
2018-04-13T01:06:57.175Z,0.00
2018-04-13T01:07:57.160Z,0.00
2018-04-13T01:08:57.144Z,0.00
2018-04-13T01:09:57.135Z,0.00
2018-04-13T01:10:57.130Z,0.00
2018-04-13T01:11:57.108Z,0.00
2018-04-13T01:12:57.095Z,0.00
2018-04-13T01:13:57.077Z,0.00
2018-04-13T01:14:57.065Z,0.00
2018-04-13T01:15:57.050Z,0.00
2018-04-13T01:16:57.075Z,0.00
2018-04-13T01:17:57.024Z,0.00
2018-04-13T01:18:57.019Z,0.00
2018-04-13T01:19:57.005Z,0.00
2018-04-13T01:20:56.992Z,0.00
2018-04-13T01:21:56.974Z,0.00
2018-04-13T01:22:56.967Z,0.00
2018-04-13T01:23:56.950Z,0.00
2018-04-13T01:24:56.941Z,0.00
2018-04-13T01:25:56.924Z,0.00
2018-04-13T01:26:56.917Z,0.00
2018-04-13T01:27:56.905Z,0.00
2018-04-13T01:28:56.886Z,0.00
2018-04-13T01:29:56.879Z,0.00
2018-04-13T01:30:56.854Z,0.00
2018-04-13T01:31:56.845Z,0.00
2018-04-13T01:32:56.837Z,0.00
2018-04-13T01:33:56.821Z,0.00
2018-04-13T01:34:56.811Z,0.00
2018-04-13T01:35:56.799Z,0.00
2018-04-13T01:36:56.786Z,0.00
2018-04-13T01:37:56.766Z,0.00
2018-04-13T01:38:56.760Z,0.00
2018-04-13T01:39:56.746Z,0.00
2018-04-13T01:40:56.734Z,0.00
2018-04-13T01:41:56.722Z,0.00
2018-04-13T01:42:56.710Z,0.00
2018-04-13T01:43:56.696Z,0.00
2018-04-13T01:44:56.679Z,0.00
2018-04-13T01:45:56.669Z,0.00
2018-04-13T01:46:56.691Z,0.00
2018-04-13T01:47:56.649Z,0.00
2018-04-13T01:48:56.627Z,0.00
2018-04-13T01:49:56.623Z,0.00
2018-04-13T01:50:56.603Z,0.00
2018-04-13T01:51:56.591Z,0.00
2018-04-13T01:52:56.581Z,0.00
2018-04-13T01:53:56.566Z,0.00
2018-04-13T01:54:56.554Z,0.00
2018-04-13T01:55:56.538Z,0.00
2018-04-13T01:56:56.527Z,0.00
2018-04-13T01:57:56.523Z,0.00
2018-04-13T01:58:56.499Z,0.00
2018-04-13T01:59:56.487Z,0.00
2018-04-13T02:00:56.478Z,0.00
2018-04-13T02:01:56.464Z,0.00
2018-04-13T02:02:56.460Z,0.00
2018-04-13T02:03:56.434Z,0.00
2018-04-13T02:04:56.433Z,0.00
2018-04-13T02:05:56.417Z,0.00
2018-04-13T02:06:56.402Z,0.00
2018-04-13T02:07:56.389Z,0.00
2018-04-13T02:08:56.378Z,0.00
2018-04-13T02:09:56.363Z,0.00
2018-04-13T02:10:56.353Z,0.00
2018-04-13T02:11:56.334Z,0.00
2018-04-13T02:12:56.317Z,0.00
2018-04-13T02:13:56.309Z,0.00
2018-04-13T02:14:56.295Z,0.00
2018-04-13T02:15:56.285Z,0.00
2018-04-13T02:16:56.268Z,0.00
2018-04-13T02:17:56.275Z,0.00
2018-04-13T02:18:56.242Z,0.00
2018-04-13T02:19:56.230Z,0.00
2018-04-13T02:20:56.214Z,0.00
2018-04-13T02:21:56.206Z,0.00
2018-04-13T02:22:56.194Z,0.00
2018-04-13T02:23:56.178Z,0.00
2018-04-13T02:24:56.164Z,0.00
2018-04-13T02:25:56.149Z,0.00
2018-04-13T02:26:56.139Z,0.00
2018-04-13T02:27:56.127Z,0.00
2018-04-13T02:28:56.117Z,0.00
2018-04-13T02:29:56.101Z,0.00
2018-04-13T02:30:56.081Z,0.00
2018-04-13T02:31:56.075Z,0.00
2018-04-13T02:32:56.064Z,0.00
2018-04-13T02:33:56.048Z,0.00
2018-04-13T02:34:56.036Z,0.00
2018-04-13T02:35:56.020Z,0.00
2018-04-13T02:36:56.020Z,0.00
2018-04-13T02:37:55.996Z,0.00
2018-04-13T02:38:55.991Z,0.00
2018-04-13T02:39:55.976Z,0.00
2018-04-13T02:40:55.959Z,0.00
2018-04-13T02:41:55.943Z,0.00
2018-04-13T02:42:55.932Z,0.00
2018-04-13T02:43:55.931Z,0.00
2018-04-13T02:44:55.906Z,0.00
2018-04-13T02:45:55.895Z,0.00
2018-04-13T02:46:55.886Z,0.00
2018-04-13T02:47:55.867Z,0.00
2018-04-13T02:48:55.856Z,0.00
2018-04-13T02:49:55.840Z,0.00
2018-04-13T02:50:55.828Z,0.00
2018-04-13T02:51:55.818Z,0.00
2018-04-13T02:52:55.800Z,0.00
2018-04-13T02:53:55.790Z,0.00
2018-04-13T02:54:55.779Z,0.00
2018-04-13T02:55:55.763Z,0.00
2018-04-13T02:56:55.754Z,0.00
2018-04-13T02:57:55.736Z,0.00
2018-04-13T02:58:55.727Z,0.00
2018-04-13T02:59:55.710Z,0.00
2018-04-13T03:00:55.697Z,0.00
2018-04-13T03:01:55.689Z,0.00
2018-04-13T03:02:55.670Z,0.00
2018-04-13T03:03:55.661Z,0.00
2018-04-13T03:04:55.643Z,0.00
2018-04-13T03:05:55.629Z,0.00
2018-04-13T03:06:55.613Z,0.00
2018-04-13T03:07:55.603Z,0.00
2018-04-13T03:08:55.588Z,0.00
2018-04-13T03:09:55.578Z,0.00
2018-04-13T03:10:55.568Z,0.00
2018-04-13T03:11:55.552Z,0.00
2018-04-13T03:12:55.535Z,0.00
2018-04-13T03:13:55.523Z,0.00
2018-04-13T03:14:55.511Z,0.00
2018-04-13T03:15:55.502Z,0.00
2018-04-13T03:16:55.485Z,0.00
2018-04-13T03:17:55.472Z,0.00
2018-04-13T03:18:55.487Z,0.00
2018-04-13T03:19:55.453Z,0.00
2018-04-13T03:20:55.433Z,0.00
2018-04-13T03:21:55.414Z,0.00
2018-04-13T03:22:55.402Z,0.00
2018-04-13T03:23:55.394Z,0.00
2018-04-13T03:24:55.376Z,0.00
2018-04-13T03:25:55.370Z,0.00
2018-04-13T03:26:55.379Z,0.00
2018-04-13T03:27:55.338Z,0.00
2018-04-13T03:28:55.325Z,0.00
2018-04-13T03:29:55.315Z,0.00
2018-04-13T03:30:55.299Z,0.00
2018-04-13T03:31:55.283Z,0.00
2018-04-13T03:32:55.272Z,0.00
2018-04-13T03:33:55.264Z,0.00
2018-04-13T03:34:55.242Z,0.00
2018-04-13T03:35:55.228Z,0.00
2018-04-13T03:36:55.221Z,0.00
2018-04-13T03:37:55.202Z,0.00
2018-04-13T03:38:55.197Z,0.00
2018-04-13T03:39:55.174Z,0.00
2018-04-13T03:40:55.167Z,0.00
2018-04-13T03:41:55.151Z,0.00
2018-04-13T03:42:55.138Z,0.00
2018-04-13T03:43:55.132Z,0.00
2018-04-13T03:44:55.109Z,0.00
2018-04-13T03:45:55.101Z,0.00
2018-04-13T03:46:55.089Z,0.00
2018-04-13T03:47:55.072Z,0.00
2018-04-13T03:48:55.062Z,0.00
2018-04-13T03:49:55.065Z,0.00
2018-04-13T03:50:55.034Z,0.00
2018-04-13T03:51:55.019Z,0.00
2018-04-13T03:52:55.006Z,0.00
2018-04-13T03:53:54.995Z,0.00
2018-04-13T03:54:54.979Z,0.00
2018-04-13T03:55:54.966Z,0.00
2018-04-13T03:56:54.957Z,0.00
2018-04-13T03:57:54.937Z,0.00
2018-04-13T03:58:54.928Z,0.00
2018-04-13T03:59:54.916Z,0.00
2018-04-13T04:00:54.896Z,0.00
2018-04-13T04:01:54.887Z,0.00
2018-04-13T04:02:54.874Z,0.00
2018-04-13T04:03:54.857Z,0.00
2018-04-13T04:04:54.844Z,0.00
2018-04-13T04:05:54.832Z,0.00
2018-04-13T04:06:54.814Z,0.00
2018-04-13T04:07:54.806Z,0.00
2018-04-13T04:08:54.789Z,0.00
2018-04-13T04:09:54.775Z,0.00
2018-04-13T04:11:01.586Z,0.00
2018-04-13T04:11:54.745Z,0.00
2018-04-13T04:12:54.737Z,0.00
2018-04-13T04:13:54.721Z,0.00
2018-04-13T04:14:54.711Z,0.00
2018-04-13T04:15:54.693Z,0.00
2018-04-13T04:16:54.680Z,0.00
2018-04-13T04:17:54.670Z,0.00
2018-04-13T04:18:54.652Z,0.00
2018-04-13T04:19:54.640Z,0.00
2018-04-13T04:20:54.624Z,0.00
2018-04-13T04:21:54.610Z,0.00
2018-04-13T04:22:54.602Z,0.00
2018-04-13T04:23:54.593Z,4.00
2018-04-13T04:24:54.575Z,0.00
2018-04-13T04:25:54.561Z,0.00
2018-04-13T04:26:54.540Z,0.00
2018-04-13T04:27:54.529Z,4.00
2018-04-13T04:28:54.519Z,0.00
2018-04-13T04:29:54.507Z,4.00
2018-04-13T04:30:54.485Z,4.00
2018-04-13T04:31:54.473Z,4.00
2018-04-13T04:32:54.460Z,4.00
2018-04-13T04:33:54.450Z,4.00
2018-04-13T04:34:54.439Z,4.00
2018-04-13T04:35:54.426Z,8.00
2018-04-13T04:36:54.411Z,8.00
2018-04-13T04:37:54.399Z,4.00
2018-04-13T04:38:54.385Z,8.00
2018-04-13T04:39:54.371Z,8.00
2018-04-13T04:40:54.360Z,8.00
2018-04-13T04:41:54.344Z,12.00
2018-04-13T04:42:54.336Z,12.00
2018-04-13T04:43:54.316Z,12.00
2018-04-13T04:44:54.302Z,12.00
2018-04-13T04:45:54.288Z,12.00
2018-04-13T04:46:54.277Z,16.00
2018-04-13T04:47:54.263Z,16.00
2018-04-13T04:48:54.253Z,16.00
2018-04-13T04:49:54.237Z,20.00
2018-04-13T04:50:54.221Z,20.00
2018-04-13T04:51:54.212Z,24.00
2018-04-13T04:52:54.199Z,24.00
2018-04-13T04:53:54.189Z,28.00
2018-04-13T04:54:54.173Z,24.00
2018-04-13T04:55:54.156Z,28.00
2018-04-13T04:56:54.138Z,28.00
2018-04-13T04:57:54.131Z,32.00
2018-04-13T04:58:54.118Z,32.00
2018-04-13T04:59:54.104Z,32.00
2018-04-13T05:00:54.090Z,40.00
2018-04-13T05:01:54.078Z,40.00
2018-04-13T05:02:54.061Z,40.00
2018-04-13T05:03:54.053Z,44.00
2018-04-13T05:04:54.049Z,44.00
2018-04-13T05:05:54.025Z,48.00
2018-04-13T05:06:54.012Z,52.00
2018-04-13T05:07:53.995Z,48.00
2018-04-13T05:08:53.979Z,52.00
2018-04-13T05:09:53.971Z,56.00
2018-04-13T05:10:53.952Z,56.00
2018-04-13T05:11:53.987Z,60.00
2018-04-13T05:12:53.930Z,64.00
2018-04-13T05:13:53.913Z,64.00
2018-04-13T05:14:53.902Z,68.00
2018-04-13T05:15:53.886Z,68.00
2018-04-13T05:16:53.875Z,68.00
2018-04-13T05:17:53.864Z,72.00
2018-04-13T05:18:53.852Z,76.00
2018-04-13T05:19:53.832Z,80.00
2018-04-13T05:20:53.823Z,80.00
2018-04-13T05:21:53.811Z,80.00
2018-04-13T05:22:53.793Z,84.00
2018-04-13T05:23:53.779Z,88.00
2018-04-13T05:24:53.765Z,92.00
2018-04-13T05:25:53.757Z,92.00
2018-04-13T05:26:53.739Z,96.00
2018-04-13T05:27:53.727Z,100.00
2018-04-13T05:28:53.718Z,100.00
2018-04-13T05:29:53.705Z,104.00
2018-04-13T05:30:53.683Z,108.00
2018-04-13T05:31:53.678Z,112.00
2018-04-13T05:32:53.665Z,112.00
2018-04-13T05:33:53.655Z,116.00
2018-04-13T05:34:53.635Z,124.00
2018-04-13T05:35:53.625Z,124.00
2018-04-13T05:36:53.608Z,128.00
2018-04-13T05:37:53.602Z,128.00
2018-04-13T05:38:53.586Z,136.00
2018-04-13T05:39:53.570Z,140.00
2018-04-13T05:40:53.555Z,144.00
2018-04-13T05:41:53.543Z,152.00
2018-04-13T05:42:53.528Z,156.00
2018-04-13T05:43:53.515Z,160.00
2018-04-13T05:44:53.508Z,160.00
2018-04-13T05:45:53.486Z,168.00
2018-04-13T05:46:53.478Z,172.00
2018-04-13T05:47:53.460Z,176.00
2018-04-13T05:48:53.446Z,180.00
2018-04-13T05:49:53.435Z,184.00
2018-04-13T05:50:53.423Z,192.00
2018-04-13T05:51:53.404Z,192.00
2018-04-13T05:52:53.402Z,200.00
2018-04-13T05:53:53.386Z,204.00
2018-04-13T05:54:53.365Z,208.00
2018-04-13T05:55:53.359Z,212.00
2018-04-13T05:56:53.343Z,216.00
2018-04-13T05:57:53.325Z,224.00
2018-04-13T05:58:53.309Z,228.00
2018-04-13T05:59:53.301Z,232.00
2018-04-13T06:00:53.286Z,240.00
2018-04-13T06:01:53.274Z,244.00
2018-04-13T06:02:53.258Z,244.00
2018-04-13T06:03:53.258Z,248.00
2018-04-13T06:04:53.234Z,252.00
2018-04-13T06:05:53.226Z,252.00
2018-04-13T06:06:53.203Z,260.00
2018-04-13T06:07:53.198Z,256.00
2018-04-13T06:08:53.181Z,260.00
2018-04-13T06:09:53.173Z,260.00
2018-04-13T06:10:53.157Z,264.00
2018-04-13T06:11:53.145Z,264.00
2018-04-13T06:12:53.126Z,264.00
2018-04-13T06:13:53.118Z,268.00
2018-04-13T06:14:53.108Z,268.00
2018-04-13T06:15:53.089Z,268.00
2018-04-13T06:16:53.073Z,272.00
2018-04-13T06:17:53.071Z,272.00
2018-04-13T06:18:53.065Z,276.00
2018-04-13T06:19:53.037Z,276.00
2018-04-13T06:20:53.016Z,276.00
2018-04-13T06:21:53.005Z,280.00
2018-04-13T06:22:52.991Z,280.00
2018-04-13T06:23:52.985Z,284.00
2018-04-13T06:24:52.968Z,292.00
2018-04-13T06:25:52.956Z,292.00
2018-04-13T06:26:52.940Z,300.00
2018-04-13T06:27:52.924Z,304.00
2018-04-13T06:28:52.910Z,312.00
2018-04-13T06:29:52.955Z,328.00
2018-04-13T06:30:52.896Z,356.00
2018-04-13T06:31:52.865Z,396.00
2018-04-13T06:32:52.855Z,420.00
2018-04-13T06:33:52.849Z,440.00
2018-04-13T06:34:52.829Z,448.00
2018-04-13T06:35:52.863Z,456.00
2018-04-13T06:36:55.042Z,468.00
2018-04-13T06:37:52.794Z,468.00
2018-04-13T06:38:52.781Z,460.00
2018-04-13T06:39:52.771Z,444.00
2018-04-13T06:40:52.755Z,476.00
2018-04-13T06:41:52.744Z,500.00
2018-04-13T06:42:52.724Z,524.00
2018-04-13T06:43:52.712Z,552.00
2018-04-13T06:44:52.704Z,564.00
2018-04-13T06:45:52.690Z,568.00
2018-04-13T06:46:52.666Z,604.00
2018-04-13T06:47:52.666Z,672.00
2018-04-13T06:48:52.692Z,728.00
2018-04-13T06:49:52.635Z,728.00
2018-04-13T06:50:52.626Z,736.00
2018-04-13T06:51:52.605Z,700.00
2018-04-13T06:52:52.591Z,692.00
2018-04-13T06:53:52.581Z,748.00
2018-04-13T06:54:52.567Z,704.00
2018-04-13T06:55:52.556Z,736.00
2018-04-13T06:56:52.542Z,792.00
2018-04-13T06:57:52.535Z,548.00
2018-04-13T06:58:52.518Z,552.00
2018-04-13T06:59:52.505Z,508.00
2018-04-13T07:00:52.490Z,516.00
2018-04-13T07:01:52.476Z,544.00
2018-04-13T07:02:52.474Z,684.00
2018-04-13T07:03:52.452Z,752.00
2018-04-13T07:04:52.437Z,752.00
2018-04-13T07:05:52.429Z,592.00
2018-04-13T07:06:52.409Z,556.00
2018-04-13T07:07:52.401Z,700.00
2018-04-13T07:08:52.392Z,796.00
2018-04-13T07:09:52.377Z,716.00
2018-04-13T07:10:52.363Z,1000.00
2018-04-13T07:11:52.349Z,976.00
2018-04-13T07:12:52.338Z,932.00
2018-04-13T07:13:52.322Z,928.00
2018-04-13T07:14:52.310Z,924.00
2018-04-13T07:15:52.305Z,944.00
2018-04-13T07:16:52.283Z,900.00
2018-04-13T07:17:52.268Z,980.00
2018-04-13T07:18:52.257Z,1020.00
2018-04-13T07:19:52.247Z,1016.00
2018-04-13T07:20:52.246Z,928.00
2018-04-13T07:21:52.226Z,904.00
2018-04-13T07:22:52.213Z,980.00
2018-04-13T07:23:52.202Z,956.00
2018-04-13T07:24:52.210Z,956.00
2018-04-13T07:25:52.177Z,964.00
2018-04-13T07:26:52.166Z,1012.00
2018-04-13T07:27:52.151Z,1024.00
2018-04-13T07:28:52.138Z,1032.00
2018-04-13T07:29:52.132Z,1044.00
2018-04-13T07:30:52.110Z,1036.00
2018-04-13T07:31:52.102Z,1024.00
2018-04-13T07:32:52.086Z,1044.00
2018-04-13T07:33:52.072Z,1044.00
2018-04-13T07:34:52.064Z,980.00
2018-04-13T07:35:52.048Z,924.00
2018-04-13T07:36:52.044Z,956.00
2018-04-13T07:37:52.028Z,1104.00
2018-04-13T07:38:52.017Z,1116.00
2018-04-13T07:39:52.262Z,1096.00
2018-04-13T07:40:51.998Z,1012.00
2018-04-13T07:41:51.978Z,1016.00
2018-04-13T07:42:52.140Z,992.00
2018-04-13T07:43:51.953Z,1064.00
2018-04-13T07:44:51.946Z,924.00
2018-04-13T07:45:51.931Z,936.00
2018-04-13T07:46:51.959Z,984.00
2018-04-13T07:47:51.904Z,1172.00
2018-04-13T07:48:52.163Z,1196.00
2018-04-13T07:49:51.880Z,1028.00
2018-04-13T07:50:51.870Z,940.00
2018-04-13T07:51:51.855Z,920.00
2018-04-13T07:52:51.849Z,1076.00
2018-04-13T07:53:51.834Z,1336.00
2018-04-13T07:54:51.819Z,1364.00
2018-04-13T07:55:51.806Z,1356.00
2018-04-13T07:56:51.806Z,1068.00
2018-04-13T07:57:51.787Z,1348.00
2018-04-13T07:58:52.306Z,1308.00
2018-04-13T07:59:51.759Z,1336.00
2018-04-13T08:00:51.750Z,1332.00
2018-04-13T08:01:51.736Z,1304.00
2018-04-13T08:02:51.777Z,1316.00
2018-04-13T08:03:51.714Z,1388.00
2018-04-13T08:04:51.702Z,1496.00
2018-04-13T08:05:51.694Z,1472.00
2018-04-13T08:06:51.689Z,1504.00
2018-04-13T08:07:51.672Z,1520.00
2018-04-13T08:08:51.661Z,1540.00
2018-04-13T08:09:51.641Z,1548.00
2018-04-13T08:10:51.631Z,1464.00
2018-04-13T08:11:51.622Z,1484.00
2018-04-13T08:12:51.611Z,1512.00
2018-04-13T08:13:51.601Z,1476.00
2018-04-13T08:14:51.593Z,1492.00
2018-04-13T08:15:51.573Z,1408.00
2018-04-13T08:16:51.566Z,1328.00
2018-04-13T08:17:51.562Z,1464.00
2018-04-13T08:18:51.545Z,1472.00
2018-04-13T08:19:51.528Z,1548.00
2018-04-13T08:20:51.516Z,1520.00
2018-04-13T08:21:51.506Z,1484.00
2018-04-13T08:22:51.494Z,1548.00
2018-04-13T08:23:51.484Z,1528.00
2018-04-13T08:24:51.473Z,1656.00
2018-04-13T08:25:51.465Z,1636.00
2018-04-13T08:26:51.455Z,1568.00
2018-04-13T08:27:51.437Z,1664.00
2018-04-13T08:28:51.428Z,1692.00
2018-04-13T08:29:51.415Z,1536.00
2018-04-13T08:30:51.405Z,1608.00
2018-04-13T08:31:51.422Z,1620.00
2018-04-13T08:32:51.384Z,1688.00
2018-04-13T08:33:51.367Z,1716.00
2018-04-13T08:34:51.359Z,1736.00
2018-04-13T08:35:51.347Z,1724.00
2018-04-13T08:36:51.346Z,1780.00
2018-04-13T08:37:51.327Z,1780.00
2018-04-13T08:38:51.311Z,1832.00
2018-04-13T08:39:51.297Z,1844.00
2018-04-13T08:40:51.293Z,1852.00
2018-04-13T08:41:51.280Z,1860.00
2018-04-13T08:42:51.274Z,1872.00
2018-04-13T08:43:51.264Z,1888.00
2018-04-13T08:44:51.255Z,1892.00
2018-04-13T08:45:51.237Z,1900.00
2018-04-13T08:46:51.225Z,1920.00
2018-04-13T08:47:51.218Z,1932.00
2018-04-13T08:48:51.425Z,1932.00
2018-04-13T08:49:51.192Z,1936.00
2018-04-13T08:50:51.182Z,1940.00
2018-04-13T08:51:51.168Z,1956.00
2018-04-13T08:52:51.161Z,1956.00
2018-04-13T08:53:51.165Z,1960.00
2018-04-13T08:54:51.142Z,1972.00
2018-04-13T08:55:51.125Z,1972.00
2018-04-13T08:56:51.117Z,1968.00
2018-04-13T08:57:51.113Z,1984.00
2018-04-13T08:58:51.099Z,2028.00
2018-04-13T08:59:51.080Z,1524.00
2018-04-13T09:00:51.073Z,1980.00
2018-04-13T09:01:51.066Z,1976.00
2018-04-13T09:02:51.049Z,1972.00
2018-04-13T09:03:51.037Z,1968.00
2018-04-13T09:04:51.028Z,1956.00
2018-04-13T09:05:51.026Z,1952.00
2018-04-13T09:06:51.024Z,1936.00
2018-04-13T09:07:51.040Z,1932.00
2018-04-13T09:08:50.989Z,1932.00
2018-04-13T09:09:50.986Z,1936.00
2018-04-13T09:10:50.969Z,1932.00
2018-04-13T09:11:50.958Z,1932.00
2018-04-13T09:12:50.946Z,1928.00
2018-04-13T09:13:50.947Z,1928.00
2018-04-13T09:14:50.925Z,1928.00
2018-04-13T09:15:50.917Z,1928.00
2018-04-13T09:16:50.905Z,1932.00
2018-04-13T09:17:50.900Z,1932.00
2018-04-13T09:18:50.883Z,1932.00
2018-04-13T09:19:50.873Z,1936.00
2018-04-13T09:20:50.926Z,1936.00
2018-04-13T09:21:50.858Z,1940.00
2018-04-13T09:22:50.847Z,1940.00
2018-04-13T09:23:50.837Z,1940.00
2018-04-13T09:24:50.821Z,1936.00
2018-04-13T09:25:50.811Z,1936.00
2018-04-13T09:26:50.809Z,1940.00
2018-04-13T09:27:50.794Z,1944.00
2018-04-13T09:28:50.783Z,1948.00
2018-04-13T09:29:50.774Z,1948.00
2018-04-13T09:30:50.761Z,1952.00
2018-04-13T09:31:50.750Z,1948.00
2018-04-13T09:33:50.732Z,1952.00
2018-04-13T09:34:50.722Z,1952.00
2018-04-13T09:35:50.715Z,1964.00
2018-04-13T09:36:50.702Z,1976.00
2018-04-13T09:37:50.690Z,1972.00
2018-04-13T09:38:50.683Z,1968.00
2018-04-13T09:39:50.669Z,1964.00
2018-04-13T09:40:50.667Z,1964.00
2018-04-13T09:41:50.655Z,1964.00
2018-04-13T09:42:50.640Z,1968.00
2018-04-13T09:43:50.631Z,1968.00
2018-04-13T09:44:50.621Z,1976.00
2018-04-13T09:45:50.616Z,1980.00
2018-04-13T09:46:50.616Z,2000.00
2018-04-13T09:47:50.595Z,2008.00
2018-04-13T09:48:50.582Z,2016.00
2018-04-13T09:49:50.571Z,2036.00
2018-04-13T09:50:50.566Z,2064.00
2018-04-13T09:51:50.558Z,2080.00
2018-04-13T09:52:50.552Z,2080.00
2018-04-13T09:53:50.540Z,2112.00
2018-04-13T09:54:50.523Z,2208.00
2018-04-13T09:55:50.516Z,620.00
2018-04-13T09:56:50.502Z,652.00
2018-04-13T09:57:50.505Z,2016.00
2018-04-13T09:58:50.489Z,588.00
2018-04-13T09:59:50.494Z,2324.00
2018-04-13T10:00:50.464Z,1976.00
2018-04-13T10:01:50.463Z,2288.00
2018-04-13T10:02:50.457Z,1604.00
2018-04-13T10:03:50.443Z,2224.00
2018-04-13T10:04:50.431Z,1880.00
2018-04-13T10:05:50.425Z,2224.00
2018-04-13T10:06:50.417Z,2204.00
2018-04-13T10:07:50.407Z,2172.00
2018-04-13T10:08:50.396Z,2220.00
2018-04-13T10:09:50.388Z,2040.00
2018-04-13T10:10:50.378Z,1028.00
2018-04-13T10:11:50.372Z,2232.00
2018-04-13T10:12:50.360Z,1492.00
2018-04-13T10:13:50.349Z,1960.00
2018-04-13T10:14:50.341Z,2328.00
2018-04-13T10:15:50.346Z,2488.00
2018-04-13T10:16:50.327Z,2436.00
2018-04-13T10:17:50.312Z,2136.00
2018-04-13T10:18:50.301Z,1220.00
2018-04-13T10:19:50.296Z,940.00
2018-04-13T10:20:50.282Z,904.00
2018-04-13T10:21:50.277Z,808.00
2018-04-13T10:22:50.268Z,848.00
2018-04-13T10:23:50.254Z,928.00
2018-04-13T10:24:50.252Z,844.00
2018-04-13T10:25:50.242Z,764.00
2018-04-13T10:26:50.261Z,724.00
2018-04-13T10:27:50.224Z,752.00
2018-04-13T10:28:50.213Z,964.00
2018-04-13T10:29:50.205Z,1268.00
2018-04-13T10:30:50.192Z,1216.00
2018-04-13T10:31:50.187Z,1084.00
2018-04-13T10:32:50.175Z,992.00
2018-04-13T10:33:50.164Z,1044.00
2018-04-13T10:34:50.152Z,1152.00
2018-04-13T10:35:50.146Z,1184.00
2018-04-13T10:36:50.137Z,1120.00
2018-04-13T10:37:50.126Z,1132.00
2018-04-13T10:38:50.123Z,1124.00
2018-04-13T10:39:50.110Z,1120.00
2018-04-13T10:40:50.099Z,1088.00
2018-04-13T10:41:50.098Z,1060.00
2018-04-13T10:42:50.118Z,1036.00
2018-04-13T10:43:50.069Z,1036.00
2018-04-13T10:44:50.063Z,1048.00
2018-04-13T10:45:50.053Z,1080.00
2018-04-13T10:46:50.037Z,1080.00
2018-04-13T10:47:50.031Z,1060.00
2018-04-13T10:48:50.026Z,1052.00
2018-04-13T10:49:50.016Z,1096.00
2018-04-13T10:50:50.002Z,1188.00
2018-04-13T10:51:49.996Z,3064.00
2018-04-13T10:52:49.987Z,3312.00
2018-04-13T10:53:49.978Z,1188.00
2018-04-13T10:54:49.966Z,1128.00
2018-04-13T10:55:49.961Z,1112.00
2018-04-13T10:56:49.950Z,1108.00
2018-04-13T10:57:49.939Z,1140.00
2018-04-13T10:58:49.926Z,1164.00
2018-04-13T10:59:49.916Z,1180.00
2018-04-13T11:00:49.914Z,1212.00
2018-04-13T11:01:49.901Z,1280.00
2018-04-13T11:02:49.889Z,1320.00
2018-04-13T11:03:49.885Z,1380.00
2018-04-13T11:04:49.868Z,1172.00
2018-04-13T11:05:49.862Z,1104.00
2018-04-13T11:06:49.858Z,1072.00
2018-04-13T11:07:49.842Z,1056.00
2018-04-13T11:08:49.836Z,1072.00
2018-04-13T11:09:49.828Z,1072.00
2018-04-13T11:10:49.816Z,1072.00
2018-04-13T11:11:49.806Z,1076.00
2018-04-13T11:12:49.795Z,1084.00
2018-04-13T11:13:49.785Z,1056.00
2018-04-13T11:14:49.783Z,1044.00
2018-04-13T11:15:49.773Z,1052.00
2018-04-13T11:16:49.789Z,1056.00
2018-04-13T11:17:49.755Z,1036.00
2018-04-13T11:18:49.747Z,1028.00
2018-04-13T11:19:49.735Z,992.00
2018-04-13T11:20:49.726Z,984.00
2018-04-13T11:21:49.718Z,1000.00
2018-04-13T11:22:49.704Z,1020.00
2018-04-13T11:23:49.694Z,1084.00
2018-04-13T11:24:49.747Z,1200.00
2018-04-13T11:25:49.690Z,1192.00
2018-04-13T11:26:49.672Z,1692.00
2018-04-13T11:27:49.662Z,1172.00
2018-04-13T11:28:49.653Z,1160.00
2018-04-13T11:29:49.636Z,1004.00
2018-04-13T11:30:49.628Z,972.00
2018-04-13T11:31:49.620Z,944.00
2018-04-13T11:32:49.617Z,948.00
2018-04-13T11:33:49.615Z,996.00
2018-04-13T11:34:49.589Z,1032.00
2018-04-13T11:35:49.577Z,1044.00
2018-04-13T11:36:49.580Z,1036.00
2018-04-13T11:37:49.567Z,1052.00
2018-04-13T11:38:49.554Z,1060.00
2018-04-13T11:39:49.544Z,1080.00
2018-04-13T11:40:49.536Z,1248.00
2018-04-13T11:41:49.530Z,2268.00
2018-04-13T11:42:49.516Z,2176.00
2018-04-13T11:43:49.506Z,1172.00
2018-04-13T11:44:49.499Z,1220.00
2018-04-13T11:45:49.485Z,1056.00
2018-04-13T11:46:49.477Z,1044.00
2018-04-13T11:47:49.469Z,1040.00
2018-04-13T11:48:49.463Z,1036.00
2018-04-13T11:49:49.450Z,1032.00
2018-04-13T11:50:49.444Z,1024.00
2018-04-13T11:51:49.484Z,1032.00
2018-04-13T11:52:49.420Z,1052.00
2018-04-13T11:53:49.415Z,1096.00
2018-04-13T11:54:49.404Z,1144.00
2018-04-13T11:55:49.392Z,3316.00
2018-04-13T11:56:49.378Z,2092.00
2018-04-13T11:57:49.380Z,1312.00
2018-04-13T11:58:49.366Z,1664.00
2018-04-13T11:59:49.356Z,1068.00
2018-04-13T12:00:49.349Z,972.00
2018-04-13T12:01:49.339Z,948.00
2018-04-13T12:02:49.327Z,952.00
2018-04-13T12:03:49.320Z,952.00
2018-04-13T12:04:49.308Z,952.00
2018-04-13T12:05:49.337Z,1092.00
2018-04-13T12:06:49.291Z,3976.00
2018-04-13T12:07:49.284Z,1368.00
2018-04-13T12:08:49.271Z,3620.00
2018-04-13T12:09:49.267Z,3560.00
2018-04-13T12:10:49.257Z,3568.00
2018-04-13T12:11:49.241Z,3732.00
2018-04-13T12:12:49.233Z,1472.00
2018-04-13T12:13:49.225Z,932.00
2018-04-13T12:14:49.217Z,848.00
2018-04-13T12:15:49.203Z,812.00
2018-04-13T12:16:49.204Z,800.00
2018-04-13T12:17:49.192Z,812.00
2018-04-13T12:18:49.180Z,824.00
2018-04-13T12:19:49.175Z,856.00
2018-04-13T12:20:49.165Z,904.00
2018-04-13T12:21:49.153Z,1336.00
2018-04-13T12:22:49.149Z,1780.00
2018-04-13T12:23:49.137Z,932.00
2018-04-13T12:24:49.124Z,884.00
2018-04-13T12:25:49.111Z,864.00
2018-04-13T12:26:49.115Z,876.00
2018-04-13T12:27:49.094Z,844.00
2018-04-13T12:28:49.083Z,872.00
2018-04-13T12:29:49.087Z,900.00
2018-04-13T12:30:49.065Z,1060.00
2018-04-13T12:31:49.062Z,904.00
2018-04-13T12:32:49.056Z,888.00
2018-04-13T12:33:49.037Z,888.00
2018-04-13T12:34:49.029Z,884.00
2018-04-13T12:35:49.024Z,872.00
2018-04-13T12:36:49.020Z,788.00
2018-04-13T12:37:49.002Z,800.00
2018-04-13T12:38:49.005Z,920.00
2018-04-13T12:39:48.982Z,1300.00
2018-04-13T12:40:48.971Z,920.00